createdAt,value
2023-04-20T00:00:00.837Z,510.00
2023-04-20T00:00:59.841Z,515.00
2023-04-20T00:01:59.949Z,517.00
2023-04-20T00:03:00.998Z,501.00
2023-04-20T00:04:01.169Z,515.00
2023-04-20T00:05:01.056Z,517.00
2023-04-20T00:06:01.051Z,516.00
2023-04-20T00:07:00.099Z,512.00
2023-04-20T00:08:00.183Z,518.00
2023-04-20T00:09:01.229Z,515.00
2023-04-20T00:10:01.249Z,518.00
2023-04-20T00:11:01.277Z,515.00
2023-04-20T00:12:01.341Z,507.00
2023-04-20T00:13:01.352Z,514.00
2023-04-20T00:14:01.433Z,510.00
2023-04-20T00:15:00.467Z,517.00
2023-04-20T00:16:01.478Z,511.00
2023-04-20T00:17:01.577Z,514.00
2023-04-20T00:18:00.645Z,515.00
2023-04-20T00:19:01.623Z,510.00
2023-04-20T00:20:01.646Z,512.00
2023-04-20T00:21:01.699Z,513.00
2023-04-20T00:22:01.753Z,506.00
2023-04-20T00:23:00.780Z,509.00
2023-04-20T00:24:01.859Z,512.00
2023-04-20T00:25:00.857Z,508.00
2023-04-20T00:26:00.931Z,508.00
2023-04-20T00:27:00.952Z,510.00
2023-04-20T00:28:00.981Z,508.00
2023-04-20T00:29:02.046Z,508.00
2023-04-20T00:30:02.144Z,515.00
2023-04-20T00:31:02.158Z,513.00
2023-04-20T00:32:01.176Z,511.00
2023-04-20T00:33:01.247Z,512.00
2023-04-20T00:34:01.262Z,502.00
2023-04-20T00:35:02.298Z,513.00
2023-04-20T00:36:04.919Z,511.00
2023-04-20T00:37:02.630Z,522.00
2023-04-20T00:38:02.320Z,515.00
2023-04-20T00:39:01.358Z,504.00
2023-04-20T00:40:02.326Z,513.00
2023-04-20T00:41:01.315Z,512.00
2023-04-20T00:42:01.490Z,517.00
2023-04-20T00:43:01.298Z,514.00
2023-04-20T00:44:02.279Z,515.00
2023-04-20T00:45:02.277Z,513.00
2023-04-20T00:46:02.318Z,511.00
2023-04-20T00:47:01.284Z,512.00
2023-04-20T00:48:02.313Z,513.00
2023-04-20T00:49:02.258Z,512.00
2023-04-20T00:50:02.262Z,511.00
2023-04-20T00:51:01.247Z,510.00
2023-04-20T00:52:02.248Z,514.00
2023-04-20T00:53:02.249Z,514.00
2023-04-20T00:54:01.227Z,508.00
2023-04-20T00:55:02.217Z,509.00
2023-04-20T00:56:02.208Z,508.00
2023-04-20T00:57:02.268Z,510.00
2023-04-20T00:58:01.455Z,515.00
2023-04-20T00:59:02.348Z,511.00
2023-04-20T01:00:02.412Z,505.00
2023-04-20T01:01:01.429Z,507.00
2023-04-20T01:02:02.606Z,503.00
2023-04-20T01:03:02.697Z,511.00
2023-04-20T01:04:02.594Z,511.00
2023-04-20T01:05:01.644Z,514.00
2023-04-20T01:06:02.648Z,503.00
2023-04-20T01:07:02.691Z,512.00
2023-04-20T01:08:02.755Z,510.00
2023-04-20T01:09:01.807Z,509.00
2023-04-20T01:10:02.863Z,511.00
2023-04-20T01:11:01.935Z,512.00
2023-04-20T01:12:07.137Z,509.00
2023-04-20T01:13:02.956Z,510.00
2023-04-20T01:14:02.989Z,510.00
2023-04-20T01:15:01.938Z,509.00
2023-04-20T01:16:02.969Z,510.00
2023-04-20T01:17:02.937Z,509.00
2023-04-20T01:18:02.988Z,509.00
2023-04-20T01:19:01.972Z,500.00
2023-04-20T01:20:03.054Z,512.00
2023-04-20T01:21:02.096Z,513.00
2023-04-20T01:22:03.141Z,512.00
2023-04-20T01:23:03.174Z,500.00
2023-04-20T01:24:03.199Z,511.00
2023-04-20T01:25:03.269Z,508.00
2023-04-20T01:26:02.306Z,514.00
2023-04-20T01:27:03.354Z,508.00
2023-04-20T01:28:02.408Z,508.00
2023-04-20T01:29:02.464Z,507.00
2023-04-20T01:30:03.552Z,508.00
2023-04-20T01:31:02.562Z,511.00
2023-04-20T01:32:02.596Z,510.00
2023-04-20T01:33:03.657Z,509.00
2023-04-20T01:34:03.669Z,509.00
2023-04-20T01:35:03.775Z,510.00
2023-04-20T01:36:03.794Z,511.00
2023-04-20T01:37:02.843Z,506.00
2023-04-20T01:38:02.894Z,506.00
2023-04-20T01:39:03.932Z,504.00
2023-04-20T01:40:04.072Z,509.00
2023-04-20T01:41:03.014Z,505.00
2023-04-20T01:42:04.060Z,505.00
2023-04-20T01:43:03.103Z,510.00
2023-04-20T01:44:04.148Z,508.00
2023-04-20T01:45:03.209Z,508.00
2023-04-20T01:46:04.285Z,508.00
2023-04-20T01:47:04.373Z,506.00
2023-04-20T01:48:03.371Z,506.00
2023-04-20T01:49:03.411Z,510.00
2023-04-20T01:50:04.471Z,503.00
2023-04-20T01:51:04.506Z,509.00
2023-04-20T01:52:04.573Z,508.00
2023-04-20T01:53:04.617Z,509.00
2023-04-20T01:54:03.655Z,508.00
2023-04-20T01:55:03.699Z,504.00
2023-04-20T01:56:04.752Z,507.00
2023-04-20T01:57:04.810Z,507.00
2023-04-20T01:58:04.859Z,505.00
2023-04-20T01:59:03.940Z,505.00
2023-04-20T02:00:04.954Z,506.00
2023-04-20T02:01:05.049Z,506.00
2023-04-20T02:02:05.160Z,506.00
2023-04-20T02:03:04.190Z,508.00
2023-04-20T02:04:05.141Z,504.00
2023-04-20T02:05:04.172Z,502.00
2023-04-20T02:06:05.234Z,508.00
2023-04-20T02:07:05.275Z,506.00
2023-04-20T02:08:04.320Z,512.00
2023-04-20T02:09:05.379Z,513.00
2023-04-20T02:10:05.407Z,508.00
2023-04-20T02:11:05.467Z,511.00
2023-04-20T02:12:04.515Z,513.00
2023-04-20T02:13:05.546Z,503.00
2023-04-20T02:14:05.602Z,506.00
2023-04-20T02:15:05.654Z,509.00
2023-04-20T02:16:04.687Z,510.00
2023-04-20T02:17:05.817Z,509.00
2023-04-20T02:18:04.893Z,516.00
2023-04-20T02:19:05.842Z,512.00
2023-04-20T02:20:05.896Z,514.00
2023-04-20T02:21:05.952Z,512.00
2023-04-20T02:22:04.999Z,511.00
2023-04-20T02:23:06.095Z,512.00
2023-04-20T02:24:06.112Z,505.00
2023-04-20T02:25:05.146Z,510.00
2023-04-20T02:26:05.877Z,504.00
2023-04-20T02:27:05.233Z,505.00
2023-04-20T02:28:05.695Z,507.00
2023-04-20T02:29:06.383Z,506.00
2023-04-20T02:30:06.812Z,509.00
2023-04-20T02:31:05.525Z,508.00
2023-04-20T02:32:06.504Z,507.00
2023-04-20T02:33:06.547Z,509.00
2023-04-20T02:34:05.632Z,506.00
2023-04-20T02:35:06.693Z,502.00
2023-04-20T02:36:06.730Z,507.00
2023-04-20T02:37:05.812Z,507.00
2023-04-20T02:38:06.817Z,504.00
2023-04-20T02:39:05.871Z,507.00
2023-04-20T02:40:07.032Z,503.00
2023-04-20T02:41:06.961Z,504.00
2023-04-20T02:42:07.040Z,506.00
2023-04-20T02:43:07.081Z,507.00
2023-04-20T02:44:07.102Z,505.00
2023-04-20T02:45:06.171Z,502.00
2023-04-20T02:46:07.216Z,504.00
2023-04-20T02:47:07.249Z,502.00
2023-04-20T02:48:07.310Z,503.00
2023-04-20T02:49:06.347Z,502.00
2023-04-20T02:50:06.418Z,503.00
2023-04-20T02:51:06.461Z,501.00
2023-04-20T02:52:07.528Z,504.00
2023-04-20T02:53:07.559Z,507.00
2023-04-20T02:54:07.644Z,502.00
2023-04-20T02:55:06.683Z,504.00
2023-04-20T02:56:06.767Z,504.00
2023-04-20T02:57:06.782Z,505.00
2023-04-20T02:58:06.826Z,501.00
2023-04-20T02:59:06.880Z,500.00
2023-04-20T03:00:08.049Z,506.00
2023-04-20T03:01:07.013Z,501.00
2023-04-20T03:02:07.163Z,501.00
2023-04-20T03:03:08.239Z,500.00
2023-04-20T03:04:07.336Z,505.00
2023-04-20T03:05:07.241Z,502.00
2023-04-20T03:06:08.381Z,500.00
2023-04-20T03:07:07.353Z,502.00
2023-04-20T03:08:07.426Z,502.00
2023-04-20T03:09:08.772Z,504.00
2023-04-20T03:10:07.714Z,507.00
2023-04-20T03:11:07.597Z,505.00
2023-04-20T03:12:08.642Z,509.00
2023-04-20T03:13:07.685Z,508.00
2023-04-20T03:14:08.756Z,507.00
2023-04-20T03:15:08.848Z,505.00
2023-04-20T03:16:08.069Z,507.00
2023-04-20T03:17:07.908Z,511.00
2023-04-20T03:18:08.998Z,505.00
2023-04-20T03:19:09.037Z,508.00
2023-04-20T03:20:09.179Z,511.00
2023-04-20T03:21:09.120Z,503.00
2023-04-20T03:22:09.225Z,505.00
2023-04-20T03:23:09.231Z,507.00
2023-04-20T03:24:09.251Z,509.00
2023-04-20T03:25:09.304Z,509.00
2023-04-20T03:26:08.345Z,510.00
2023-04-20T03:27:09.398Z,510.00
2023-04-20T03:28:09.428Z,504.00
2023-04-20T03:29:09.525Z,507.00
2023-04-20T03:30:09.538Z,504.00
2023-04-20T03:31:09.585Z,511.00
2023-04-20T03:32:08.663Z,500.00
2023-04-20T03:33:09.715Z,516.00
2023-04-20T03:34:09.730Z,511.00
2023-04-20T03:35:09.848Z,512.00
2023-04-20T03:36:08.830Z,510.00
2023-04-20T03:37:08.860Z,510.00
2023-04-20T03:38:09.944Z,514.00
2023-04-20T03:39:08.961Z,516.00
2023-04-20T03:40:09.010Z,508.00
2023-04-20T03:41:10.061Z,511.00
2023-04-20T03:42:10.079Z,519.00
2023-04-20T03:43:09.114Z,517.00
2023-04-20T03:44:09.157Z,512.00
2023-04-20T03:45:10.213Z,516.00
2023-04-20T03:46:10.280Z,517.00
2023-04-20T03:47:10.288Z,511.00
2023-04-20T03:48:09.321Z,511.00
2023-04-20T03:49:10.345Z,515.00
2023-04-20T03:50:10.387Z,512.00
2023-04-20T03:51:09.426Z,516.00
2023-04-20T03:52:09.468Z,518.00
2023-04-20T03:53:10.524Z,515.00
2023-04-20T03:54:09.555Z,513.00
2023-04-20T03:55:10.542Z,517.00
2023-04-20T03:56:10.584Z,518.00
2023-04-20T03:57:09.629Z,516.00
2023-04-20T03:58:09.665Z,513.00
2023-04-20T03:59:10.717Z,518.00
2023-04-20T04:00:09.733Z,516.00
2023-04-20T04:01:10.778Z,517.00
2023-04-20T04:02:09.820Z,510.00
2023-04-20T04:03:11.025Z,513.00
2023-04-20T04:04:10.092Z,522.00
2023-04-20T04:05:09.940Z,519.00
2023-04-20T04:06:10.915Z,515.00
2023-04-20T04:07:09.932Z,521.00
2023-04-20T04:08:10.999Z,512.00
2023-04-20T04:09:10.016Z,521.00
2023-04-20T04:10:11.073Z,519.00
2023-04-20T04:11:11.111Z,519.00
2023-04-20T04:12:11.124Z,504.00
2023-04-20T04:13:11.149Z,515.00
2023-04-20T04:14:10.183Z,520.00
2023-04-20T04:15:11.209Z,518.00
2023-04-20T04:16:11.268Z,518.00
2023-04-20T04:17:11.324Z,513.00
2023-04-20T04:18:11.312Z,517.00
2023-04-20T04:19:11.341Z,514.00
2023-04-20T04:20:10.373Z,512.00
2023-04-20T04:21:10.465Z,512.00
2023-04-20T04:22:10.465Z,517.00
2023-04-20T04:23:10.488Z,517.00
2023-04-20T04:24:11.524Z,508.00
2023-04-20T04:25:11.845Z,510.00
2023-04-20T04:26:10.603Z,515.00
2023-04-20T04:27:11.621Z,510.00
2023-04-20T04:28:11.667Z,517.00
2023-04-20T04:29:11.676Z,505.00
2023-04-20T04:30:11.749Z,515.00
2023-04-20T04:31:10.759Z,516.00
2023-04-20T04:32:11.787Z,511.00
2023-04-20T04:33:10.807Z,512.00
2023-04-20T04:34:11.851Z,514.00
2023-04-20T04:35:11.862Z,517.00
2023-04-20T04:36:11.912Z,508.00
2023-04-20T04:37:10.995Z,505.00
2023-04-20T04:38:11.963Z,510.00
2023-04-20T04:39:12.083Z,516.00
2023-04-20T04:40:11.082Z,512.00
2023-04-20T04:41:11.064Z,518.00
2023-04-20T04:42:11.132Z,506.00
2023-04-20T04:43:11.126Z,511.00
2023-04-20T04:44:12.163Z,512.00
2023-04-20T04:45:12.233Z,508.00
2023-04-20T04:46:12.235Z,504.00
2023-04-20T04:47:12.262Z,503.00
2023-04-20T04:48:12.639Z,511.00
2023-04-20T04:49:11.331Z,507.00
2023-04-20T04:50:11.370Z,509.00
2023-04-20T04:51:12.442Z,512.00
2023-04-20T04:52:12.437Z,505.00
2023-04-20T04:53:12.472Z,516.00
2023-04-20T04:54:11.478Z,502.00
2023-04-20T04:55:13.837Z,513.00
2023-04-20T04:56:11.515Z,510.00
2023-04-20T04:57:12.500Z,506.00
2023-04-20T04:58:11.546Z,518.00
2023-04-20T04:59:11.501Z,512.00
2023-04-20T05:00:12.501Z,516.00
2023-04-20T05:01:12.469Z,522.00
2023-04-20T05:02:12.531Z,523.00
2023-04-20T05:03:12.542Z,510.00
2023-04-20T05:04:12.604Z,503.00
2023-04-20T05:05:12.713Z,507.00
2023-04-20T05:06:11.513Z,514.00
2023-04-20T05:07:12.532Z,519.00
2023-04-20T05:08:12.535Z,518.00
2023-04-20T05:09:12.438Z,511.00
2023-04-20T05:10:14.120Z,512.00
2023-04-20T05:11:11.446Z,512.00
2023-04-20T05:12:12.401Z,507.00
2023-04-20T05:13:12.394Z,509.00
2023-04-20T05:14:11.415Z,518.00
2023-04-20T05:15:12.395Z,520.00
2023-04-20T05:16:12.415Z,511.00
2023-04-20T05:17:11.386Z,526.00
2023-04-20T05:18:11.378Z,523.00
2023-04-20T05:19:11.397Z,523.00
2023-04-20T05:20:11.352Z,514.00
2023-04-20T05:21:12.347Z,529.00
2023-04-20T05:22:12.344Z,514.00
2023-04-20T05:23:11.321Z,522.00
2023-04-20T05:24:11.319Z,520.00
2023-04-20T05:25:13.997Z,527.00
2023-04-20T05:26:11.322Z,530.00
2023-04-20T05:27:12.302Z,529.00
2023-04-20T05:28:11.278Z,524.00
2023-04-20T05:29:12.291Z,537.00
2023-04-20T05:30:20.864Z,534.00
2023-04-20T05:31:12.284Z,534.00
2023-04-20T05:32:12.317Z,536.00
2023-04-20T05:33:12.277Z,537.00
2023-04-20T05:34:12.280Z,535.00
2023-04-20T05:35:12.234Z,544.00
2023-04-20T05:36:12.316Z,540.00
2023-04-20T05:37:12.257Z,552.00
2023-04-20T05:38:11.482Z,542.00
2023-04-20T05:39:12.243Z,542.00
2023-04-20T05:40:12.292Z,556.00
2023-04-20T05:41:11.358Z,551.00
2023-04-20T05:42:12.231Z,549.00
2023-04-20T05:43:11.290Z,561.00
2023-04-20T05:44:12.201Z,555.00
2023-04-20T05:45:11.246Z,559.00
2023-04-20T05:46:12.259Z,565.00
2023-04-20T05:47:12.222Z,564.00
2023-04-20T05:48:12.170Z,554.00
2023-04-20T05:49:12.152Z,573.00
2023-04-20T05:50:12.146Z,575.00
2023-04-20T05:51:12.127Z,581.00
2023-04-20T05:52:11.128Z,589.00
2023-04-20T05:53:12.125Z,594.00
2023-04-20T05:54:12.146Z,593.00
2023-04-20T05:55:11.150Z,605.00
2023-04-20T05:56:12.169Z,623.00
2023-04-20T05:57:12.076Z,622.00
2023-04-20T05:58:12.077Z,622.00
2023-04-20T05:59:12.080Z,642.00
2023-04-20T06:00:12.080Z,651.00
2023-04-20T06:01:12.184Z,652.00
2023-04-20T06:02:11.249Z,654.00
2023-04-20T06:03:12.281Z,658.00
2023-04-20T06:04:11.550Z,663.00
2023-04-20T06:05:12.128Z,662.00
2023-04-20T06:06:11.034Z,699.00
2023-04-20T06:07:11.060Z,712.00
2023-04-20T06:08:12.021Z,672.00
2023-04-20T06:09:12.028Z,694.00
2023-04-20T06:10:11.033Z,682.00
2023-04-20T06:11:12.029Z,673.00
2023-04-20T06:12:12.036Z,663.00
2023-04-20T06:13:11.988Z,658.00
2023-04-20T06:14:12.012Z,661.00
2023-04-20T06:15:11.191Z,659.00
2023-04-20T06:16:12.104Z,651.00
2023-04-20T06:17:12.001Z,650.00
2023-04-20T06:18:12.139Z,644.00
2023-04-20T06:19:12.025Z,641.00
2023-04-20T06:20:11.944Z,628.00
2023-04-20T06:21:11.941Z,627.00
2023-04-20T06:22:11.917Z,626.00
2023-04-20T06:23:12.019Z,628.00
2023-04-20T06:24:12.019Z,617.00
2023-04-20T06:25:11.927Z,612.00
2023-04-20T06:26:11.939Z,624.00
2023-04-20T06:27:12.040Z,660.00
2023-04-20T06:28:12.077Z,641.00
2023-04-20T06:29:12.076Z,636.00
2023-04-20T06:30:11.119Z,601.00
2023-04-20T06:31:11.278Z,623.00
2023-04-20T06:32:12.196Z,610.00
2023-04-20T06:33:12.530Z,601.00
2023-04-20T06:34:11.355Z,609.00
2023-04-20T06:35:11.295Z,607.00
2023-04-20T06:36:12.342Z,599.00
2023-04-20T06:37:11.705Z,608.00
2023-04-20T06:38:12.431Z,605.00
2023-04-20T06:39:12.480Z,609.00
2023-04-20T06:40:13.717Z,603.00
2023-04-20T06:41:12.531Z,599.00
2023-04-20T06:42:12.525Z,591.00
2023-04-20T06:43:12.478Z,590.00
2023-04-20T06:44:11.541Z,585.00
2023-04-20T06:45:12.480Z,592.00
2023-04-20T06:46:12.527Z,584.00
2023-04-20T06:47:11.482Z,588.00
2023-04-20T06:48:30.074Z,581.00
2023-04-20T06:49:12.495Z,582.00
2023-04-20T06:50:11.475Z,584.00
2023-04-20T06:51:12.439Z,592.00
2023-04-20T06:52:12.628Z,608.00
2023-04-20T06:53:11.430Z,631.00
2023-04-20T06:54:12.449Z,622.00
2023-04-20T06:55:12.450Z,633.00
2023-04-20T06:56:12.452Z,704.00
2023-04-20T06:57:12.668Z,711.00
2023-04-20T06:58:12.379Z,544.00
2023-04-20T06:59:12.380Z,486.00
2023-04-20T07:00:12.378Z,475.00
2023-04-20T07:01:12.408Z,485.00
2023-04-20T07:02:12.455Z,493.00
2023-04-20T07:03:12.598Z,498.00
2023-04-20T07:04:11.465Z,505.00
2023-04-20T07:05:12.375Z,494.00
2023-04-20T07:06:12.342Z,515.00
2023-04-20T07:07:12.332Z,509.00
2023-04-20T07:08:12.329Z,495.00
2023-04-20T07:09:11.343Z,482.00
2023-04-20T07:10:11.309Z,506.00
2023-04-20T07:11:11.314Z,517.00
2023-04-20T07:12:11.320Z,500.00
2023-04-20T07:13:12.278Z,511.00
2023-04-20T07:14:11.359Z,519.00
2023-04-20T07:15:11.333Z,502.00
2023-04-20T07:16:12.423Z,522.00
2023-04-20T07:17:12.284Z,501.00
2023-04-20T07:18:12.357Z,509.00
2023-04-20T07:19:12.301Z,514.00
2023-04-20T07:20:11.426Z,562.00
2023-04-20T07:21:12.410Z,537.00
2023-04-20T07:22:12.515Z,523.00
2023-04-20T07:23:12.542Z,553.00
2023-04-20T07:24:12.601Z,543.00
2023-04-20T07:25:15.665Z,522.00
2023-04-20T07:26:12.773Z,523.00
2023-04-20T07:27:12.652Z,525.00
2023-04-20T07:28:12.628Z,483.00
2023-04-20T07:29:11.603Z,509.00
2023-04-20T07:30:11.607Z,499.00
2023-04-20T07:31:11.597Z,502.00
2023-04-20T07:32:12.734Z,511.00
2023-04-20T07:33:12.643Z,517.00
2023-04-20T07:34:12.601Z,568.00
2023-04-20T07:35:11.586Z,548.00
2023-04-20T07:36:12.556Z,516.00
2023-04-20T07:37:12.560Z,534.00
2023-04-20T07:38:11.592Z,517.00
2023-04-20T07:39:11.531Z,544.00
2023-04-20T07:40:12.520Z,548.00
2023-04-20T07:41:11.533Z,547.00
2023-04-20T07:42:12.551Z,533.00
2023-04-20T07:43:11.554Z,536.00
2023-04-20T07:44:12.565Z,599.00
2023-04-20T07:45:12.517Z,648.00
2023-04-20T07:46:12.593Z,615.00
2023-04-20T07:47:14.184Z,1135.00
2023-04-20T07:48:11.519Z,1436.00
2023-04-20T07:49:12.449Z,1050.00
2023-04-20T07:50:12.442Z,973.00
2023-04-20T07:51:12.449Z,1294.00
2023-04-20T07:52:16.502Z,1431.00
2023-04-20T07:53:12.445Z,1440.00
2023-04-20T07:54:11.440Z,1493.00
2023-04-20T07:55:12.444Z,1618.00
2023-04-20T07:56:11.456Z,1716.00
2023-04-20T07:57:12.454Z,1928.00
2023-04-20T07:58:11.524Z,2013.00
2023-04-20T07:59:11.545Z,2004.00
2023-04-20T08:00:11.371Z,1973.00
2023-04-20T08:01:12.563Z,1972.00
2023-04-20T08:02:12.443Z,1951.00
2023-04-20T08:03:11.505Z,1957.00
2023-04-20T08:04:11.624Z,1948.00
2023-04-20T08:05:12.650Z,1949.00
2023-04-20T08:06:11.368Z,1949.00
2023-04-20T08:07:11.353Z,1883.00
2023-04-20T08:08:12.334Z,1874.00
2023-04-20T08:09:13.366Z,1895.00
2023-04-20T08:10:12.370Z,1868.00
2023-04-20T08:11:12.326Z,1861.00
2023-04-20T08:12:12.302Z,1850.00
2023-04-20T08:13:12.309Z,1865.00
2023-04-20T08:14:12.269Z,1872.00
2023-04-20T08:15:12.305Z,1850.00
2023-04-20T08:16:12.398Z,1837.00
2023-04-20T08:17:11.425Z,1798.00
2023-04-20T08:18:12.491Z,1793.00
2023-04-20T08:19:11.456Z,1795.00
2023-04-20T08:20:11.492Z,1800.00
2023-04-20T08:21:12.518Z,1781.00
2023-04-20T08:22:12.624Z,1799.00
2023-04-20T08:23:12.556Z,1791.00
2023-04-20T08:24:11.600Z,1769.00
2023-04-20T08:25:12.649Z,1761.00
2023-04-20T08:26:12.686Z,1780.00
2023-04-20T08:27:11.703Z,1730.00
2023-04-20T08:28:24.294Z,1751.00
2023-04-20T08:29:12.673Z,1752.00
2023-04-20T08:30:11.658Z,1755.00
2023-04-20T08:31:12.697Z,1766.00
2023-04-20T08:32:12.647Z,1775.00
2023-04-20T08:33:11.726Z,1770.00
2023-04-20T08:34:12.619Z,1763.00
2023-04-20T08:35:12.620Z,1776.00
2023-04-20T08:36:11.675Z,1769.00
2023-04-20T08:37:12.627Z,1762.00
2023-04-20T08:38:15.767Z,1764.00
2023-04-20T08:39:12.578Z,1766.00
2023-04-20T08:40:11.595Z,1704.00
2023-04-20T08:41:12.677Z,1700.00
2023-04-20T08:42:12.768Z,1704.00
2023-04-20T08:43:11.640Z,1519.00
2023-04-20T08:44:11.566Z,1465.00
2023-04-20T08:45:11.571Z,1556.00
2023-04-20T08:46:12.567Z,1458.00
2023-04-20T08:47:12.566Z,1443.00
2023-04-20T08:48:11.529Z,1367.00
2023-04-20T08:49:12.490Z,1384.00
2023-04-20T08:50:11.504Z,1364.00
2023-04-20T08:51:12.538Z,1215.00
2023-04-20T08:52:11.572Z,1166.00
2023-04-20T08:53:12.686Z,1207.00
2023-04-20T08:54:12.640Z,1207.00
2023-04-20T08:55:11.709Z,1348.00
2023-04-20T08:56:12.435Z,1381.00
2023-04-20T08:57:12.674Z,1365.00
2023-04-20T08:58:11.486Z,1399.00
2023-04-20T08:59:11.430Z,1430.00
2023-04-20T09:00:13.564Z,1439.00
2023-04-20T09:01:12.767Z,1465.00
2023-04-20T09:02:12.713Z,1183.00
2023-04-20T09:03:12.903Z,947.00
2023-04-20T09:04:12.950Z,1010.00
2023-04-20T09:05:12.899Z,1063.00
2023-04-20T09:06:12.966Z,1334.00
2023-04-20T09:07:12.903Z,1532.00
2023-04-20T09:08:12.955Z,1612.00
2023-04-20T09:09:11.938Z,1630.00
2023-04-20T09:10:12.129Z,1667.00
2023-04-20T09:11:11.972Z,1680.00
2023-04-20T09:12:12.987Z,1681.00
2023-04-20T09:13:12.997Z,1685.00
2023-04-20T09:14:12.149Z,1676.00
2023-04-20T09:15:13.380Z,1685.00
2023-04-20T09:16:13.033Z,1700.00
2023-04-20T09:17:12.983Z,1699.00
2023-04-20T09:18:12.995Z,1718.00
2023-04-20T09:19:13.934Z,1707.00
2023-04-20T09:20:12.066Z,1712.00
2023-04-20T09:21:12.008Z,1692.00
2023-04-20T09:22:13.057Z,1697.00
2023-04-20T09:23:12.107Z,1706.00
2023-04-20T09:24:13.112Z,1704.00
2023-04-20T09:25:13.174Z,1710.00
2023-04-20T09:26:12.194Z,1707.00
2023-04-20T09:27:12.246Z,1699.00
2023-04-20T09:28:13.381Z,1702.00
2023-04-20T09:29:12.369Z,1718.00
2023-04-20T09:30:12.567Z,1703.00
2023-04-20T09:31:15.093Z,1714.00
2023-04-20T09:32:12.729Z,1707.00
2023-04-20T09:33:13.738Z,1710.00
2023-04-20T09:34:13.888Z,1703.00
2023-04-20T09:35:12.928Z,1703.00
2023-04-20T09:36:12.932Z,1702.00
2023-04-20T09:37:13.031Z,1691.00
2023-04-20T09:38:14.048Z,1678.00
2023-04-20T09:39:14.090Z,1672.00
2023-04-20T09:40:14.216Z,1683.00
2023-04-20T09:41:13.242Z,1693.00
2023-04-20T09:42:14.280Z,1699.00
2023-04-20T09:43:15.321Z,1705.00
2023-04-20T09:44:14.498Z,1709.00
2023-04-20T09:45:13.449Z,1703.00
2023-04-20T09:46:14.568Z,1689.00
2023-04-20T09:47:14.838Z,1712.00
2023-04-20T09:48:13.924Z,1720.00
2023-04-20T09:49:14.463Z,1739.00
2023-04-20T09:50:26.575Z,1772.00
2023-04-20T09:51:14.549Z,1775.00
2023-04-20T09:52:14.753Z,1771.00
2023-04-20T09:53:14.668Z,1670.00
2023-04-20T09:54:14.533Z,1723.00
2023-04-20T09:55:14.433Z,1792.00
2023-04-20T09:56:13.418Z,1839.00
2023-04-20T09:57:14.409Z,1889.00
2023-04-20T09:58:14.548Z,1930.00
2023-04-20T09:59:14.473Z,1950.00
2023-04-20T10:00:14.453Z,1968.00
2023-04-20T10:01:13.532Z,1975.00
2023-04-20T10:02:13.722Z,1981.00
2023-04-20T10:03:13.600Z,1973.00
2023-04-20T10:04:14.774Z,1995.00
2023-04-20T10:05:14.366Z,1953.00
2023-04-20T10:06:14.365Z,1941.00
2023-04-20T10:07:13.442Z,1956.00
2023-04-20T10:08:13.391Z,1958.00
2023-04-20T10:09:14.334Z,1961.00
2023-04-20T10:10:14.837Z,1967.00
2023-04-20T10:11:14.421Z,1965.00
2023-04-20T10:12:14.358Z,1966.00
2023-04-20T10:13:13.518Z,2005.00
2023-04-20T10:14:13.383Z,1984.00
2023-04-20T10:15:13.326Z,1981.00
2023-04-20T10:16:14.406Z,1986.00
2023-04-20T10:17:14.344Z,1986.00
2023-04-20T10:18:14.460Z,1980.00
2023-04-20T10:19:13.279Z,1952.00
2023-04-20T10:20:14.342Z,1970.00
2023-04-20T10:21:14.336Z,1973.00
2023-04-20T10:22:14.344Z,1953.00
2023-04-20T10:23:14.504Z,1952.00
2023-04-20T10:24:14.456Z,1983.00
2023-04-20T10:25:13.430Z,1983.00
2023-04-20T10:26:15.245Z,1966.00
2023-04-20T10:27:14.090Z,1952.00
2023-04-20T10:28:14.476Z,1942.00
2023-04-20T10:29:13.516Z,1934.00
2023-04-20T10:30:20.495Z,1936.00
2023-04-20T10:31:14.607Z,1936.00
2023-04-20T10:32:16.516Z,1920.00
2023-04-20T10:33:13.560Z,1937.00
2023-04-20T10:34:14.595Z,1901.00
2023-04-20T10:35:14.456Z,1935.00
2023-04-20T10:36:14.469Z,1937.00
2023-04-20T10:37:14.453Z,1888.00
2023-04-20T10:38:13.741Z,1900.00
2023-04-20T10:39:13.430Z,1897.00
2023-04-20T10:40:13.449Z,1875.00
2023-04-20T10:41:14.434Z,1873.00
2023-04-20T10:42:16.701Z,1885.00
2023-04-20T10:43:14.744Z,1888.00
2023-04-20T10:44:14.397Z,1870.00
2023-04-20T10:45:13.416Z,1893.00
2023-04-20T10:46:14.423Z,1867.00
2023-04-20T10:47:13.405Z,1868.00
2023-04-20T10:48:17.409Z,1823.00
2023-04-20T10:49:14.388Z,1824.00
2023-04-20T10:50:14.634Z,1830.00
2023-04-20T10:51:13.357Z,1853.00
2023-04-20T10:52:14.342Z,1882.00
2023-04-20T10:53:13.350Z,1899.00
2023-04-20T10:54:15.411Z,1888.00
2023-04-20T10:55:14.363Z,1890.00
2023-04-20T10:56:14.325Z,1892.00
2023-04-20T10:57:13.315Z,1872.00
2023-04-20T10:58:14.314Z,1870.00
2023-04-20T10:59:13.296Z,1862.00
2023-04-20T11:00:14.287Z,1853.00
2023-04-20T11:01:14.286Z,1846.00
2023-04-20T11:02:14.456Z,1813.00
2023-04-20T11:03:14.368Z,1825.00
2023-04-20T11:04:14.083Z,1798.00
2023-04-20T11:05:14.382Z,1819.00
2023-04-20T11:06:14.284Z,1846.00
2023-04-20T11:07:14.243Z,1797.00
2023-04-20T11:08:13.246Z,1812.00
2023-04-20T11:09:13.231Z,1772.00
2023-04-20T11:10:13.239Z,1768.00
2023-04-20T11:11:14.226Z,1744.00
2023-04-20T11:12:14.207Z,1791.00
2023-04-20T11:13:14.219Z,1786.00
2023-04-20T11:14:13.240Z,1763.00
2023-04-20T11:15:13.181Z,1736.00
2023-04-20T11:16:14.224Z,1750.00
2023-04-20T11:17:14.223Z,1785.00
2023-04-20T11:18:13.214Z,1771.00
2023-04-20T11:19:14.174Z,1741.00
2023-04-20T11:20:14.233Z,1737.00
2023-04-20T11:21:14.143Z,1743.00
2023-04-20T11:22:13.203Z,1741.00
2023-04-20T11:23:13.220Z,1737.00
2023-04-20T11:24:13.253Z,1760.00
2023-04-20T11:25:14.298Z,1737.00
2023-04-20T11:26:14.320Z,1702.00
2023-04-20T11:27:14.331Z,1715.00
2023-04-20T11:28:13.787Z,1726.00
2023-04-20T11:29:14.397Z,1706.00
2023-04-20T11:30:13.425Z,1691.00
2023-04-20T11:31:14.500Z,1721.00
2023-04-20T11:32:13.572Z,1740.00
2023-04-20T11:33:13.649Z,1721.00
2023-04-20T11:34:14.516Z,1706.00
2023-04-20T11:35:14.541Z,1747.00
2023-04-20T11:36:14.598Z,1720.00
2023-04-20T11:37:13.626Z,1741.00
2023-04-20T11:38:14.886Z,1751.00
2023-04-20T11:39:14.716Z,1699.00
2023-04-20T11:40:13.741Z,1730.00
2023-04-20T11:41:14.776Z,1716.00
2023-04-20T11:42:14.794Z,1746.00
2023-04-20T11:43:14.271Z,1704.00
2023-04-20T11:44:13.859Z,1718.00
2023-04-20T11:45:13.890Z,1706.00
2023-04-20T11:46:14.987Z,1697.00
2023-04-20T11:47:14.915Z,1654.00
2023-04-20T11:48:14.949Z,1684.00
2023-04-20T11:49:15.073Z,1657.00
2023-04-20T11:50:13.999Z,1691.00
2023-04-20T11:51:14.014Z,1675.00
2023-04-20T11:52:14.037Z,1668.00
2023-04-20T11:53:15.052Z,1664.00
2023-04-20T11:54:15.137Z,1670.00
2023-04-20T11:55:14.103Z,1652.00
2023-04-20T11:56:15.157Z,1644.00
2023-04-20T11:57:15.153Z,1643.00
2023-04-20T11:58:14.190Z,1663.00
2023-04-20T11:59:14.192Z,1619.00
2023-04-20T12:00:14.329Z,1608.00
2023-04-20T12:01:14.242Z,1588.00
2023-04-20T12:02:15.333Z,1643.00
2023-04-20T12:03:14.399Z,1640.00
2023-04-20T12:04:14.746Z,1589.00
2023-04-20T12:05:14.399Z,1618.00
2023-04-20T12:06:15.354Z,1606.00
2023-04-20T12:07:15.343Z,1623.00
2023-04-20T12:08:15.384Z,1614.00
2023-04-20T12:09:15.518Z,1602.00
2023-04-20T12:10:14.550Z,1596.00
2023-04-20T12:11:15.437Z,1608.00
2023-04-20T12:12:15.448Z,1591.00
2023-04-20T12:13:15.492Z,1607.00
2023-04-20T12:14:15.486Z,1602.00
2023-04-20T12:15:15.506Z,1582.00
2023-04-20T12:16:15.576Z,1564.00
2023-04-20T12:17:14.537Z,1571.00
2023-04-20T12:18:15.590Z,1637.00
2023-04-20T12:19:15.692Z,1691.00
2023-04-20T12:20:14.619Z,1760.00